Capitol Logistics 83


NZAA
Auckland International Airport
Auckland, NZ
PHNL
Daniel K Inouye International Airport
Honolulu, US

Route Details

Aircraft Information
Primary: Boeing 747-400BCF
Backup: Boeing 777-200LRF
Route Data
Distance: 3832nm
Sched. Duration: 9h 00m
Avg. Duration: 8h 48m (-52m)
Times Flown: 3
Recm'd Route: TARIB G347 UBRAX OVLAD CUFFY A579 CROBY A579 CHEEM A579 CARRP OPACA4
Planned Altitude: 33,000ft
Origin Wx: NZAA 282100Z AUTO 32004KT 270V030 9999 NCD 22/18 Q1016 NOSIG
Dest. Wx: PHNL 282053Z 07015G21KT 10SM FEW025 SCT045 BKN075 24/14 A3016 RMK AO2 PK WND 07026/2015 RAB13E24 SLP212 VCSH N P0000 60000 T02440144 51012 VISNO RWY04R $
Notes:

Financial History
Total Freight: 425,573lbs
Average Load: 141,858lbs/flt
Fuel Used: 518,102lbs
Avg. Fuel Used: 172,701lbs/flt
Fuel Expense: $196,879
Avg. Fuel Expense: $65,626
Avg. Fuel Cost: $0.38/lbs
Total Gross Income: $1,430,615
Pilot Pay: $617
Total Expenses: $154,662
Total Revenue: $1,072,948
Average Revenue: $476,871.57